Terminal Aerodrome Forecast
Issued by NWS

Home | Current Version | Previous Version | Text Only | Print | Product List | Glossary On
Versions: 1 2 3 4 5 6 7 8 9 10 11 12 13 14 15 16 17 18 19 20 21 22 23 24 25 26 27 28 29 30 31 32 33 34 35 36 37 38
000
FTUS43 KDLH 192300
TAFBRD
TAF
KBRD 192337Z 2000/2024 VRB04KT P6SM OVC070
     FM200600 00000KT 5SM BR SCT007 BKN015
     FM200900 00000KT 1 1/2SM BR SCT004 BKN007
     FM201400 12004KT P6SM SCT015
     FM201600 14007KT P6SM SKC=

USA.gov is the U.S. government's official web portal to all federal, state and local government web resources and services.